sensor_id;sensor_type;location;lat;lon;timestamp;temperature;humidity
75719;DHT22;64340;48.534;-3.036;2024-03-06T00:02:07;14.80;56.20
75719;DHT22;64340;48.534;-3.036;2024-03-06T00:04:33;14.80;56.20
75719;DHT22;64340;48.534;-3.036;2024-03-06T00:07:02;14.70;56.20
75719;DHT22;64340;48.534;-3.036;2024-03-06T00:09:28;14.70;56.20
75719;DHT22;64340;48.534;-3.036;2024-03-06T00:11:54;14.70;56.10
75719;DHT22;64340;48.534;-3.036;2024-03-06T00:14:21;14.70;56.10
75719;DHT22;64340;48.534;-3.036;2024-03-06T00:16:50;14.70;56.10
75719;DHT22;64340;48.534;-3.036;2024-03-06T00:19:19;14.60;56.10
75719;DHT22;64340;48.534;-3.036;2024-03-06T00:21:46;14.60;56.00
75719;DHT22;64340;48.534;-3.036;2024-03-06T00:24:12;14.60;56.00
75719;DHT22;64340;48.534;-3.036;2024-03-06T00:26:44;14.50;55.90
75719;DHT22;64340;48.534;-3.036;2024-03-06T00:29:10;14.50;56.00
75719;DHT22;64340;48.534;-3.036;2024-03-06T00:31:36;14.50;55.80
75719;DHT22;64340;48.534;-3.036;2024-03-06T00:34:02;14.50;55.80
75719;DHT22;64340;48.534;-3.036;2024-03-06T00:36:28;14.50;55.90
75719;DHT22;64340;48.534;-3.036;2024-03-06T00:38:54;14.40;55.80
75719;DHT22;64340;48.534;-3.036;2024-03-06T00:41:20;14.40;55.70
75719;DHT22;64340;48.534;-3.036;2024-03-06T00:43:45;14.40;55.70
75719;DHT22;64340;48.534;-3.036;2024-03-06T00:46:11;14.40;55.70
75719;DHT22;64340;48.534;-3.036;2024-03-06T00:48:37;14.30;55.70
75719;DHT22;64340;48.534;-3.036;2024-03-06T00:51:06;14.30;55.50
75719;DHT22;64340;48.534;-3.036;2024-03-06T00:53:35;14.30;55.70
75719;DHT22;64340;48.534;-3.036;2024-03-06T00:56:01;14.30;55.70
75719;DHT22;64340;48.534;-3.036;2024-03-06T00:58:27;14.30;55.60
75719;DHT22;64340;48.534;-3.036;2024-03-06T01:00:53;14.20;55.70
75719;DHT22;64340;48.534;-3.036;2024-03-06T01:03:19;14.20;55.60
75719;DHT22;64340;48.534;-3.036;2024-03-06T01:05:45;14.20;55.80
75719;DHT22;64340;48.534;-3.036;2024-03-06T01:08:11;14.20;56.00
75719;DHT22;64340;48.534;-3.036;2024-03-06T01:10:37;14.20;56.10
75719;DHT22;64340;48.534;-3.036;2024-03-06T01:13:03;14.10;56.00
75719;DHT22;64340;48.534;-3.036;2024-03-06T01:15:28;14.10;55.90
75719;DHT22;64340;48.534;-3.036;2024-03-06T01:17:54;14.10;55.90
75719;DHT22;64340;48.534;-3.036;2024-03-06T01:20:20;14.10;55.90
75719;DHT22;64340;48.534;-3.036;2024-03-06T01:22:46;14.10;56.00
75719;DHT22;64340;48.534;-3.036;2024-03-06T01:25:12;14.00;55.90
75719;DHT22;64340;48.534;-3.036;2024-03-06T01:27:37;14.00;55.90
75719;DHT22;64340;48.534;-3.036;2024-03-06T01:30:04;14.00;56.00
75719;DHT22;64340;48.534;-3.036;2024-03-06T01:32:30;14.00;56.00
75719;DHT22;64340;48.534;-3.036;2024-03-06T01:34:55;14.00;56.00
75719;DHT22;64340;48.534;-3.036;2024-03-06T01:37:21;13.90;56.10
75719;DHT22;64340;48.534;-3.036;2024-03-06T01:39:47;13.90;56.10
75719;DHT22;64340;48.534;-3.036;2024-03-06T01:42:13;13.90;56.00
75719;DHT22;64340;48.534;-3.036;2024-03-06T01:44:38;13.90;56.10
75719;DHT22;64340;48.534;-3.036;2024-03-06T01:47:04;13.90;56.20
75719;DHT22;64340;48.534;-3.036;2024-03-06T01:49:32;13.90;56.00
75719;DHT22;64340;48.534;-3.036;2024-03-06T01:51:59;13.90;56.10
75719;DHT22;64340;48.534;-3.036;2024-03-06T01:54:25;13.80;56.10
75719;DHT22;64340;48.534;-3.036;2024-03-06T01:56:51;13.70;56.20
75719;DHT22;64340;48.534;-3.036;2024-03-06T01:59:19;13.70;56.20
75719;DHT22;64340;48.534;-3.036;2024-03-06T02:01:46;13.70;56.10
75719;DHT22;64340;48.534;-3.036;2024-03-06T02:04:13;13.70;56.20
75719;DHT22;64340;48.534;-3.036;2024-03-06T02:06:42;13.70;56.20
75719;DHT22;64340;48.534;-3.036;2024-03-06T02:09:08;13.70;56.20
75719;DHT22;64340;48.534;-3.036;2024-03-06T02:11:36;13.60;56.20
75719;DHT22;64340;48.534;-3.036;2024-03-06T02:14:02;13.60;56.20
75719;DHT22;64340;48.534;-3.036;2024-03-06T02:16:28;13.60;56.00
75719;DHT22;64340;48.534;-3.036;2024-03-06T02:18:55;13.60;56.10
75719;DHT22;64340;48.534;-3.036;2024-03-06T02:21:23;13.60;56.10
75719;DHT22;64340;48.534;-3.036;2024-03-06T02:23:49;13.50;56.10
75719;DHT22;64340;48.534;-3.036;2024-03-06T02:26:20;13.50;56.10
75719;DHT22;64340;48.534;-3.036;2024-03-06T02:28:50;13.50;56.00
75719;DHT22;64340;48.534;-3.036;2024-03-06T02:31:16;13.50;56.10
75719;DHT22;64340;48.534;-3.036;2024-03-06T02:33:46;13.50;56.10
75719;DHT22;64340;48.534;-3.036;2024-03-06T02:36:13;13.50;56.10
75719;DHT22;64340;48.534;-3.036;2024-03-06T02:38:40;13.50;56.00
75719;DHT22;64340;48.534;-3.036;2024-03-06T02:41:06;13.40;56.10
75719;DHT22;64340;48.534;-3.036;2024-03-06T02:43:33;13.40;56.10
75719;DHT22;64340;48.534;-3.036;2024-03-06T02:45:59;13.40;55.90
75719;DHT22;64340;48.534;-3.036;2024-03-06T02:48:25;13.40;55.70
75719;DHT22;64340;48.534;-3.036;2024-03-06T02:50:51;13.40;55.70
75719;DHT22;64340;48.534;-3.036;2024-03-06T02:53:17;13.40;55.90
75719;DHT22;64340;48.534;-3.036;2024-03-06T02:55:43;13.30;55.90
75719;DHT22;64340;48.534;-3.036;2024-03-06T02:58:09;13.30;55.80
75719;DHT22;64340;48.534;-3.036;2024-03-06T03:00:34;13.30;55.60
75719;DHT22;64340;48.534;-3.036;2024-03-06T03:03:00;13.30;55.60
75719;DHT22;64340;48.534;-3.036;2024-03-06T03:05:26;13.30;55.40
75719;DHT22;64340;48.534;-3.036;2024-03-06T03:07:52;13.30;55.50
75719;DHT22;64340;48.534;-3.036;2024-03-06T03:10:18;13.30;55.70
75719;DHT22;64340;48.534;-3.036;2024-03-06T03:12:44;13.20;55.70
75719;DHT22;64340;48.534;-3.036;2024-03-06T03:15:10;13.20;55.80
75719;DHT22;64340;48.534;-3.036;2024-03-06T03:17:36;13.20;55.80
75719;DHT22;64340;48.534;-3.036;2024-03-06T03:20:02;13.10;55.80
75719;DHT22;64340;48.534;-3.036;2024-03-06T03:22:39;13.10;55.90
75719;DHT22;64340;48.534;-3.036;2024-03-06T03:25:12;13.10;55.80
75719;DHT22;64340;48.534;-3.036;2024-03-06T03:27:39;13.10;56.00
75719;DHT22;64340;48.534;-3.036;2024-03-06T03:30:12;13.10;56.00
75719;DHT22;64340;48.534;-3.036;2024-03-06T03:32:38;13.10;55.90
75719;DHT22;64340;48.534;-3.036;2024-03-06T03:35:04;13.10;55.90
75719;DHT22;64340;48.534;-3.036;2024-03-06T03:37:31;13.10;55.80
75719;DHT22;64340;48.534;-3.036;2024-03-06T03:39:57;13.10;55.90
75719;DHT22;64340;48.534;-3.036;2024-03-06T03:42:22;13.10;55.90
75719;DHT22;64340;48.534;-3.036;2024-03-06T03:44:48;13.00;55.90
75719;DHT22;64340;48.534;-3.036;2024-03-06T03:47:14;13.00;55.90
75719;DHT22;64340;48.534;-3.036;2024-03-06T03:49:40;13.00;55.90
75719;DHT22;64340;48.534;-3.036;2024-03-06T03:52:05;13.00;55.90
75719;DHT22;64340;48.534;-3.036;2024-03-06T03:54:32;12.90;55.90
75719;DHT22;64340;48.534;-3.036;2024-03-06T03:56:58;12.90;55.90
75719;DHT22;64340;48.534;-3.036;2024-03-06T03:59:25;12.90;55.90
75719;DHT22;64340;48.534;-3.036;2024-03-06T04:01:51;12.90;55.90
75719;DHT22;64340;48.534;-3.036;2024-03-06T04:04:17;12.90;55.90
75719;DHT22;64340;48.534;-3.036;2024-03-06T04:06:42;12.90;55.90
75719;DHT22;64340;48.534;-3.036;2024-03-06T04:09:08;12.90;55.90
75719;DHT22;64340;48.534;-3.036;2024-03-06T04:11:37;12.80;55.90
75719;DHT22;64340;48.534;-3.036;2024-03-06T04:14:04;12.80;55.80
75719;DHT22;64340;48.534;-3.036;2024-03-06T04:16:30;12.80;55.70
75719;DHT22;64340;48.534;-3.036;2024-03-06T04:18:56;12.80;55.90
75719;DHT22;64340;48.534;-3.036;2024-03-06T04:21:22;12.80;55.90
75719;DHT22;64340;48.534;-3.036;2024-03-06T04:23:48;12.80;55.80
75719;DHT22;64340;48.534;-3.036;2024-03-06T04:26:14;12.80;55.90
75719;DHT22;64340;48.534;-3.036;2024-03-06T04:28:39;12.70;55.90
75719;DHT22;64340;48.534;-3.036;2024-03-06T04:31:05;12.70;55.80
75719;DHT22;64340;48.534;-3.036;2024-03-06T04:33:31;12.70;55.90
75719;DHT22;64340;48.534;-3.036;2024-03-06T04:35:57;12.70;55.90
75719;DHT22;64340;48.534;-3.036;2024-03-06T04:38:23;12.70;55.30
75719;DHT22;64340;48.534;-3.036;2024-03-06T04:40:49;12.70;55.20
75719;DHT22;64340;48.534;-3.036;2024-03-06T04:43:15;12.70;55.40
75719;DHT22;64340;48.534;-3.036;2024-03-06T04:45:40;12.70;55.50
75719;DHT22;64340;48.534;-3.036;2024-03-06T04:48:07;12.70;55.40
75719;DHT22;64340;48.534;-3.036;2024-03-06T04:50:33;12.70;55.20
75719;DHT22;64340;48.534;-3.036;2024-03-06T04:52:58;12.70;55.10
75719;DHT22;64340;48.534;-3.036;2024-03-06T04:55:24;12.70;55.10
75719;DHT22;64340;48.534;-3.036;2024-03-06T04:57:52;12.70;55.10
75719;DHT22;64340;48.534;-3.036;2024-03-06T05:00:18;12.60;55.40
75719;DHT22;64340;48.534;-3.036;2024-03-06T05:02:44;12.60;55.50
75719;DHT22;64340;48.534;-3.036;2024-03-06T05:05:10;12.50;55.50
75719;DHT22;64340;48.534;-3.036;2024-03-06T05:07:36;12.50;55.70
75719;DHT22;64340;48.534;-3.036;2024-03-06T05:10:02;12.50;55.60
75719;DHT22;64340;48.534;-3.036;2024-03-06T05:12:28;12.50;55.80
75719;DHT22;64340;48.534;-3.036;2024-03-06T05:14:55;12.50;55.80
75719;DHT22;64340;48.534;-3.036;2024-03-06T05:17:21;12.50;56.00
75719;DHT22;64340;48.534;-3.036;2024-03-06T05:19:47;12.60;56.20
75719;DHT22;64340;48.534;-3.036;2024-03-06T05:22:15;12.60;56.10
75719;DHT22;64340;48.534;-3.036;2024-03-06T05:24:44;12.50;56.30
75719;DHT22;64340;48.534;-3.036;2024-03-06T05:27:10;12.60;56.60
75719;DHT22;64340;48.534;-3.036;2024-03-06T05:29:39;12.50;56.70
75719;DHT22;64340;48.534;-3.036;2024-03-06T05:32:05;12.50;57.00
75719;DHT22;64340;48.534;-3.036;2024-03-06T05:34:33;12.50;57.10
75719;DHT22;64340;48.534;-3.036;2024-03-06T05:37:00;12.50;57.40
75719;DHT22;64340;48.534;-3.036;2024-03-06T05:39:26;12.50;57.40
75719;DHT22;64340;48.534;-3.036;2024-03-06T05:41:54;12.50;57.20
75719;DHT22;64340;48.534;-3.036;2024-03-06T05:44:20;12.50;57.30
75719;DHT22;64340;48.534;-3.036;2024-03-06T05:46:47;12.50;57.20
75719;DHT22;64340;48.534;-3.036;2024-03-06T05:49:13;12.50;57.50
75719;DHT22;64340;48.534;-3.036;2024-03-06T05:51:39;12.50;57.90
75719;DHT22;64340;48.534;-3.036;2024-03-06T05:54:05;12.60;58.20
75719;DHT22;64340;48.534;-3.036;2024-03-06T05:56:34;12.60;59.10
75719;DHT22;64340;48.534;-3.036;2024-03-06T05:59:00;12.60;58.60
75719;DHT22;64340;48.534;-3.036;2024-03-06T06:01:30;12.50;59.40
75719;DHT22;64340;48.534;-3.036;2024-03-06T06:03:56;12.50;59.90
75719;DHT22;64340;48.534;-3.036;2024-03-06T06:06:22;12.50;60.70
75719;DHT22;64340;48.534;-3.036;2024-03-06T06:08:48;12.50;60.60
75719;DHT22;64340;48.534;-3.036;2024-03-06T06:11:13;12.50;60.20
75719;DHT22;64340;48.534;-3.036;2024-03-06T06:13:39;12.50;60.40
75719;DHT22;64340;48.534;-3.036;2024-03-06T06:16:05;12.50;60.30
75719;DHT22;64340;48.534;-3.036;2024-03-06T06:18:32;12.50;59.80
75719;DHT22;64340;48.534;-3.036;2024-03-06T06:20:59;12.50;59.50
75719;DHT22;64340;48.534;-3.036;2024-03-06T06:23:25;12.50;59.60
75719;DHT22;64340;48.534;-3.036;2024-03-06T06:25:51;12.50;59.50
75719;DHT22;64340;48.534;-3.036;2024-03-06T06:28:17;12.50;59.50
75719;DHT22;64340;48.534;-3.036;2024-03-06T06:30:42;12.50;59.70
75719;DHT22;64340;48.534;-3.036;2024-03-06T06:33:08;12.50;59.10
75719;DHT22;64340;48.534;-3.036;2024-03-06T06:35:34;12.50;59.20
75719;DHT22;64340;48.534;-3.036;2024-03-06T06:38:01;12.50;59.40
75719;DHT22;64340;48.534;-3.036;2024-03-06T06:40:27;12.50;59.50
75719;DHT22;64340;48.534;-3.036;2024-03-06T06:42:56;12.40;59.30
75719;DHT22;64340;48.534;-3.036;2024-03-06T06:45:22;12.30;59.70
75719;DHT22;64340;48.534;-3.036;2024-03-06T06:47:48;12.30;59.70
75719;DHT22;64340;48.534;-3.036;2024-03-06T06:50:15;12.30;59.70
75719;DHT22;64340;48.534;-3.036;2024-03-06T06:52:41;12.30;59.70
75719;DHT22;64340;48.534;-3.036;2024-03-06T06:55:07;12.30;59.70
75719;DHT22;64340;48.534;-3.036;2024-03-06T06:57:37;12.30;59.50
75719;DHT22;64340;48.534;-3.036;2024-03-06T07:00:03;12.30;59.70
75719;DHT22;64340;48.534;-3.036;2024-03-06T07:02:39;12.30;59.60
75719;DHT22;64340;48.534;-3.036;2024-03-06T07:05:07;12.30;59.60
75719;DHT22;64340;48.534;-3.036;2024-03-06T07:07:34;12.30;59.60
75719;DHT22;64340;48.534;-3.036;2024-03-06T07:10:00;12.30;59.50
75719;DHT22;64340;48.534;-3.036;2024-03-06T07:12:26;12.30;59.60
75719;DHT22;64340;48.534;-3.036;2024-03-06T07:14:52;12.30;59.50
75719;DHT22;64340;48.534;-3.036;2024-03-06T07:17:18;12.30;59.20
75719;DHT22;64340;48.534;-3.036;2024-03-06T07:19:43;12.30;59.20
75719;DHT22;64340;48.534;-3.036;2024-03-06T07:22:09;12.30;59.30
75719;DHT22;64340;48.534;-3.036;2024-03-06T07:24:35;12.20;59.20
75719;DHT22;64340;48.534;-3.036;2024-03-06T07:27:02;12.30;59.10
75719;DHT22;64340;48.534;-3.036;2024-03-06T07:29:28;12.20;59.00
75719;DHT22;64340;48.534;-3.036;2024-03-06T07:31:54;12.30;59.00
75719;DHT22;64340;48.534;-3.036;2024-03-06T07:34:20;12.30;59.00
75719;DHT22;64340;48.534;-3.036;2024-03-06T07:36:49;12.30;59.00
75719;DHT22;64340;48.534;-3.036;2024-03-06T07:39:19;12.30;59.00
75719;DHT22;64340;48.534;-3.036;2024-03-06T07:41:45;12.30;59.00
75719;DHT22;64340;48.534;-3.036;2024-03-06T07:44:11;12.30;59.00
75719;DHT22;64340;48.534;-3.036;2024-03-06T07:46:36;12.30;59.10
75719;DHT22;64340;48.534;-3.036;2024-03-06T07:49:03;12.30;59.10
75719;DHT22;64340;48.534;-3.036;2024-03-06T07:51:35;12.40;59.10
75719;DHT22;64340;48.534;-3.036;2024-03-06T07:54:01;12.30;59.20
75719;DHT22;64340;48.534;-3.036;2024-03-06T07:56:29;12.40;59.20
75719;DHT22;64340;48.534;-3.036;2024-03-06T07:58:55;12.40;59.10
75719;DHT22;64340;48.534;-3.036;2024-03-06T08:01:21;12.40;58.80
75719;DHT22;64340;48.534;-3.036;2024-03-06T08:03:47;12.40;58.70
75719;DHT22;64340;48.534;-3.036;2024-03-06T08:06:13;12.40;58.60
75719;DHT22;64340;48.534;-3.036;2024-03-06T08:08:44;12.40;58.70
75719;DHT22;64340;48.534;-3.036;2024-03-06T08:11:13;12.50;58.70
75719;DHT22;64340;48.534;-3.036;2024-03-06T08:13:39;12.50;58.60
75719;DHT22;64340;48.534;-3.036;2024-03-06T08:16:05;12.40;58.60
75719;DHT22;64340;48.534;-3.036;2024-03-06T08:18:32;12.50;58.50
75719;DHT22;64340;48.534;-3.036;2024-03-06T08:20:58;12.40;58.70
75719;DHT22;64340;48.534;-3.036;2024-03-06T08:23:24;12.40;58.70
75719;DHT22;64340;48.534;-3.036;2024-03-06T08:25:51;12.40;58.60
75719;DHT22;64340;48.534;-3.036;2024-03-06T08:28:18;12.40;58.60
75719;DHT22;64340;48.534;-3.036;2024-03-06T08:30:43;12.40;58.60
75719;DHT22;64340;48.534;-3.036;2024-03-06T08:33:12;12.50;58.50
75719;DHT22;64340;48.534;-3.036;2024-03-06T08:35:38;12.50;58.60
75719;DHT22;64340;48.534;-3.036;2024-03-06T08:38:04;12.40;58.60
75719;DHT22;64340;48.534;-3.036;2024-03-06T08:40:31;12.50;58.70
75719;DHT22;64340;48.534;-3.036;2024-03-06T08:42:57;12.40;58.70
75719;DHT22;64340;48.534;-3.036;2024-03-06T08:45:24;12.50;58.70
75719;DHT22;64340;48.534;-3.036;2024-03-06T08:47:50;12.50;58.70
75719;DHT22;64340;48.534;-3.036;2024-03-06T08:50:16;12.50;58.80
75719;DHT22;64340;48.534;-3.036;2024-03-06T08:52:42;12.50;58.70
75719;DHT22;64340;48.534;-3.036;2024-03-06T08:55:09;12.50;58.70
75719;DHT22;64340;48.534;-3.036;2024-03-06T08:57:36;12.50;58.70
75719;DHT22;64340;48.534;-3.036;2024-03-06T09:00:03;12.50;58.80
75719;DHT22;64340;48.534;-3.036;2024-03-06T09:02:29;12.50;58.70
75719;DHT22;64340;48.534;-3.036;2024-03-06T09:04:56;12.50;58.70
75719;DHT22;64340;48.534;-3.036;2024-03-06T09:07:22;12.50;58.70
75719;DHT22;64340;48.534;-3.036;2024-03-06T09:09:49;12.50;58.70
75719;DHT22;64340;48.534;-3.036;2024-03-06T09:12:17;12.50;58.70
75719;DHT22;64340;48.534;-3.036;2024-03-06T09:14:43;12.50;58.70
75719;DHT22;64340;48.534;-3.036;2024-03-06T09:17:10;12.50;58.60
75719;DHT22;64340;48.534;-3.036;2024-03-06T09:19:38;12.50;58.60
75719;DHT22;64340;48.534;-3.036;2024-03-06T09:22:04;12.50;58.60
75719;DHT22;64340;48.534;-3.036;2024-03-06T09:24:30;12.50;58.60
75719;DHT22;64340;48.534;-3.036;2024-03-06T09:26:55;12.50;58.70
75719;DHT22;64340;48.534;-3.036;2024-03-06T09:29:21;12.50;58.70
75719;DHT22;64340;48.534;-3.036;2024-03-06T09:31:47;12.50;58.50
75719;DHT22;64340;48.534;-3.036;2024-03-06T09:34:14;12.60;58.50
75719;DHT22;64340;48.534;-3.036;2024-03-06T09:36:41;12.60;58.60
75719;DHT22;64340;48.534;-3.036;2024-03-06T09:39:11;12.60;58.50
75719;DHT22;64340;48.534;-3.036;2024-03-06T09:41:36;12.60;58.50
75719;DHT22;64340;48.534;-3.036;2024-03-06T09:44:04;12.70;58.50
75719;DHT22;64340;48.534;-3.036;2024-03-06T09:46:30;12.70;58.50
75719;DHT22;64340;48.534;-3.036;2024-03-06T09:48:56;12.70;58.40
75719;DHT22;64340;48.534;-3.036;2024-03-06T09:51:22;12.70;58.40
75719;DHT22;64340;48.534;-3.036;2024-03-06T09:53:48;12.70;58.50
75719;DHT22;64340;48.534;-3.036;2024-03-06T09:56:18;12.70;58.20
75719;DHT22;64340;48.534;-3.036;2024-03-06T09:58:45;12.70;58.30
75719;DHT22;64340;48.534;-3.036;2024-03-06T10:01:12;12.70;58.30
75719;DHT22;64340;48.534;-3.036;2024-03-06T10:03:39;12.80;58.30
75719;DHT22;64340;48.534;-3.036;2024-03-06T10:06:08;12.80;58.40
75719;DHT22;64340;48.534;-3.036;2024-03-06T10:08:34;12.80;58.40
75719;DHT22;64340;48.534;-3.036;2024-03-06T10:11:00;12.80;58.40
75719;DHT22;64340;48.534;-3.036;2024-03-06T10:13:26;12.80;58.40
75719;DHT22;64340;48.534;-3.036;2024-03-06T10:16:04;12.80;58.30
75719;DHT22;64340;48.534;-3.036;2024-03-06T10:18:34;12.80;58.30
75719;DHT22;64340;48.534;-3.036;2024-03-06T10:21:00;12.80;58.20
75719;DHT22;64340;48.534;-3.036;2024-03-06T10:23:26;12.90;58.20
75719;DHT22;64340;48.534;-3.036;2024-03-06T10:25:55;12.90;58.20
75719;DHT22;64340;48.534;-3.036;2024-03-06T10:28:22;12.90;58.20
75719;DHT22;64340;48.534;-3.036;2024-03-06T10:30:49;12.90;58.40
75719;DHT22;64340;48.534;-3.036;2024-03-06T10:33:17;12.90;58.70
75719;DHT22;64340;48.534;-3.036;2024-03-06T10:35:47;13.00;59.00
75719;DHT22;64340;48.534;-3.036;2024-03-06T10:38:19;13.00;58.90
75719;DHT22;64340;48.534;-3.036;2024-03-06T10:40:45;13.00;58.80
75719;DHT22;64340;48.534;-3.036;2024-03-06T10:43:12;13.00;58.70
75719;DHT22;64340;48.534;-3.036;2024-03-06T10:48:08;13.00;58.70
75719;DHT22;64340;48.534;-3.036;2024-03-06T10:50:39;13.00;58.80
75719;DHT22;64340;48.534;-3.036;2024-03-06T10:53:09;13.00;58.90
75719;DHT22;64340;48.534;-3.036;2024-03-06T10:55:38;13.10;58.90
75719;DHT22;64340;48.534;-3.036;2024-03-06T10:58:08;13.10;59.20
75719;DHT22;64340;48.534;-3.036;2024-03-06T11:00:41;13.10;59.60
75719;DHT22;64340;48.534;-3.036;2024-03-06T11:03:10;13.10;60.40
75719;DHT22;64340;48.534;-3.036;2024-03-06T11:05:39;13.10;61.00
75719;DHT22;64340;48.534;-3.036;2024-03-06T11:08:09;13.30;61.50
75719;DHT22;64340;48.534;-3.036;2024-03-06T11:10:37;13.30;61.50
75719;DHT22;64340;48.534;-3.036;2024-03-06T11:13:08;13.30;61.10
75719;DHT22;64340;48.534;-3.036;2024-03-06T11:15:34;13.30;61.10
75719;DHT22;64340;48.534;-3.036;2024-03-06T11:23:33;13.40;61.00
75719;DHT22;64340;48.534;-3.036;2024-03-06T11:26:02;13.40;61.00
75719;DHT22;64340;48.534;-3.036;2024-03-06T11:28:35;13.40;61.00
75719;DHT22;64340;48.534;-3.036;2024-03-06T11:31:11;13.40;60.80
75719;DHT22;64340;48.534;-3.036;2024-03-06T11:33:45;13.40;60.70
75719;DHT22;64340;48.534;-3.036;2024-03-06T11:36:18;13.50;60.70
75719;DHT22;64340;48.534;-3.036;2024-03-06T11:38:56;13.50;60.70
75719;DHT22;64340;48.534;-3.036;2024-03-06T11:41:24;13.50;60.90
75719;DHT22;64340;48.534;-3.036;2024-03-06T11:43:51;13.50;60.90
75719;DHT22;64340;48.534;-3.036;2024-03-06T11:46:19;13.50;60.80
75719;DHT22;64340;48.534;-3.036;2024-03-06T11:48:55;13.40;61.00
75719;DHT22;64340;48.534;-3.036;2024-03-06T11:51:24;13.40;61.00
75719;DHT22;64340;48.534;-3.036;2024-03-06T11:53:52;13.30;61.10
75719;DHT22;64340;48.534;-3.036;2024-03-06T11:56:20;13.30;61.10
75719;DHT22;64340;48.534;-3.036;2024-03-06T11:58:47;13.30;61.00
75719;DHT22;64340;48.534;-3.036;2024-03-06T12:01:14;13.30;60.90
75719;DHT22;64340;48.534;-3.036;2024-03-06T12:03:41;13.30;60.90
75719;DHT22;64340;48.534;-3.036;2024-03-06T12:06:08;13.30;60.80
75719;DHT22;64340;48.534;-3.036;2024-03-06T12:08:34;13.30;60.80
75719;DHT22;64340;48.534;-3.036;2024-03-06T12:11:04;13.30;60.70
75719;DHT22;64340;48.534;-3.036;2024-03-06T12:13:31;13.30;60.80
75719;DHT22;64340;48.534;-3.036;2024-03-06T12:15:57;13.30;60.70
75719;DHT22;64340;48.534;-3.036;2024-03-06T12:18:24;13.30;60.70
75719;DHT22;64340;48.534;-3.036;2024-03-06T12:20:50;13.30;60.70
75719;DHT22;64340;48.534;-3.036;2024-03-06T12:23:23;13.30;60.60
75719;DHT22;64340;48.534;-3.036;2024-03-06T12:26:03;13.30;60.70
75719;DHT22;64340;48.534;-3.036;2024-03-06T12:28:29;13.30;60.50
75719;DHT22;64340;48.534;-3.036;2024-03-06T12:30:54;13.30;60.50
75719;DHT22;64340;48.534;-3.036;2024-03-06T12:33:21;13.30;60.60
75719;DHT22;64340;48.534;-3.036;2024-03-06T12:35:46;13.30;60.40
75719;DHT22;64340;48.534;-3.036;2024-03-06T12:38:17;13.40;60.50
75719;DHT22;64340;48.534;-3.036;2024-03-06T12:40:42;13.50;61.40
75719;DHT22;64340;48.534;-3.036;2024-03-06T12:43:09;13.50;61.30
75719;DHT22;64340;48.534;-3.036;2024-03-06T12:45:35;13.50;61.00
75719;DHT22;64340;48.534;-3.036;2024-03-06T12:48:03;13.50;60.80
75719;DHT22;64340;48.534;-3.036;2024-03-06T12:50:30;13.50;61.00
75719;DHT22;64340;48.534;-3.036;2024-03-06T12:52:56;13.60;60.70
75719;DHT22;64340;48.534;-3.036;2024-03-06T12:55:21;13.60;60.60
75719;DHT22;64340;48.534;-3.036;2024-03-06T12:57:47;13.60;60.80
75719;DHT22;64340;48.534;-3.036;2024-03-06T13:00:15;13.60;60.70
75719;DHT22;64340;48.534;-3.036;2024-03-06T13:02:45;13.70;60.70
75719;DHT22;64340;48.534;-3.036;2024-03-06T13:05:11;13.60;60.70
75719;DHT22;64340;48.534;-3.036;2024-03-06T13:07:37;13.60;60.90
75719;DHT22;64340;48.534;-3.036;2024-03-06T13:10:03;13.60;60.70
75719;DHT22;64340;48.534;-3.036;2024-03-06T13:12:29;13.60;60.80
75719;DHT22;64340;48.534;-3.036;2024-03-06T13:14:55;13.60;60.80
75719;DHT22;64340;48.534;-3.036;2024-03-06T13:17:21;13.60;60.80
75719;DHT22;64340;48.534;-3.036;2024-03-06T13:19:47;13.50;61.10
75719;DHT22;64340;48.534;-3.036;2024-03-06T13:22:12;13.60;60.90
75719;DHT22;64340;48.534;-3.036;2024-03-06T13:24:38;13.60;60.80
75719;DHT22;64340;48.534;-3.036;2024-03-06T13:27:04;13.60;60.70
75719;DHT22;64340;48.534;-3.036;2024-03-06T13:29:30;13.60;62.10
75719;DHT22;64340;48.534;-3.036;2024-03-06T13:31:56;13.50;62.60
75719;DHT22;64340;48.534;-3.036;2024-03-06T13:34:21;13.50;63.00
75719;DHT22;64340;48.534;-3.036;2024-03-06T13:36:47;13.50;63.00
75719;DHT22;64340;48.534;-3.036;2024-03-06T13:39:13;13.50;63.00
75719;DHT22;64340;48.534;-3.036;2024-03-06T13:41:39;13.40;63.20
75719;DHT22;64340;48.534;-3.036;2024-03-06T13:44:06;13.50;63.60
75719;DHT22;64340;48.534;-3.036;2024-03-06T13:46:33;13.50;63.30
75719;DHT22;64340;48.534;-3.036;2024-03-06T13:48:59;13.50;63.50
75719;DHT22;64340;48.534;-3.036;2024-03-06T13:51:26;13.60;63.40
75719;DHT22;64340;48.534;-3.036;2024-03-06T13:53:51;13.50;63.60
75719;DHT22;64340;48.534;-3.036;2024-03-06T13:56:17;13.50;63.80
75719;DHT22;64340;48.534;-3.036;2024-03-06T13:58:43;13.50;63.90
75719;DHT22;64340;48.534;-3.036;2024-03-06T14:01:09;13.60;63.50
75719;DHT22;64340;48.534;-3.036;2024-03-06T14:03:35;13.70;62.50
75719;DHT22;64340;48.534;-3.036;2024-03-06T14:06:03;13.80;62.20
75719;DHT22;64340;48.534;-3.036;2024-03-06T14:08:29;14.00;61.60
75719;DHT22;64340;48.534;-3.036;2024-03-06T14:10:55;14.10;61.30
75719;DHT22;64340;48.534;-3.036;2024-03-06T14:13:21;14.20;61.30
75719;DHT22;64340;48.534;-3.036;2024-03-06T14:15:46;14.30;61.20
75719;DHT22;64340;48.534;-3.036;2024-03-06T14:18:14;14.50;60.90
75719;DHT22;64340;48.534;-3.036;2024-03-06T14:20:40;14.60;60.80
75719;DHT22;64340;48.534;-3.036;2024-03-06T14:23:06;14.70;60.60
75719;DHT22;64340;48.534;-3.036;2024-03-06T14:25:33;14.80;60.50
75719;DHT22;64340;48.534;-3.036;2024-03-06T14:28:03;15.00;60.20
75719;DHT22;64340;48.534;-3.036;2024-03-06T14:30:29;15.00;60.50
75719;DHT22;64340;48.534;-3.036;2024-03-06T14:32:55;15.20;60.20
75719;DHT22;64340;48.534;-3.036;2024-03-06T14:35:20;15.40;60.10
75719;DHT22;64340;48.534;-3.036;2024-03-06T14:37:46;15.40;59.60
75719;DHT22;64340;48.534;-3.036;2024-03-06T14:40:14;15.50;59.80
75719;DHT22;64340;48.534;-3.036;2024-03-06T14:42:39;15.60;59.50
75719;DHT22;64340;48.534;-3.036;2024-03-06T14:45:05;15.60;59.60
75719;DHT22;64340;48.534;-3.036;2024-03-06T14:47:32;15.60;59.70
75719;DHT22;64340;48.534;-3.036;2024-03-06T14:49:58;15.80;59.50
75719;DHT22;64340;48.534;-3.036;2024-03-06T14:52:24;15.60;59.40
75719;DHT22;64340;48.534;-3.036;2024-03-06T14:54:51;15.60;59.70
75719;DHT22;64340;48.534;-3.036;2024-03-06T14:57:17;15.60;59.70
75719;DHT22;64340;48.534;-3.036;2024-03-06T14:59:45;15.80;59.80
75719;DHT22;64340;48.534;-3.036;2024-03-06T15:02:11;15.90;59.60
75719;DHT22;64340;48.534;-3.036;2024-03-06T15:04:38;16.00;59.70
75719;DHT22;64340;48.534;-3.036;2024-03-06T15:07:04;16.00;59.70
75719;DHT22;64340;48.534;-3.036;2024-03-06T15:09:29;16.00;59.60
75719;DHT22;64340;48.534;-3.036;2024-03-06T15:11:57;16.00;59.60
75719;DHT22;64340;48.534;-3.036;2024-03-06T15:14:24;16.10;59.50
75719;DHT22;64340;48.534;-3.036;2024-03-06T15:16:50;16.20;59.30
75719;DHT22;64340;48.534;-3.036;2024-03-06T15:19:16;16.20;59.50
75719;DHT22;64340;48.534;-3.036;2024-03-06T15:21:42;16.20;59.50